Time;durP1;ratioP1;P1;durP2;ratioP2;P2;SDS_P1;SDS_P2;PMS_P1;PMS_P2;Temp;Humidity;BMP_temperature;BMP_pressure;BME280_temperature;BME280_humidity;BME280_pressure;Samples;Min_cycle;Max_cycle;Signal;HPM_P1;HPM_P2
2021/12/13 00:00:30;;;;;;;30.47;28.27;;;9.60;99.90;;;;;;5044631;28;20467;-69
2021/12/13 00:03:07;;;;;;;32.03;29.63;;;9.60;99.90;;;;;;5045479;28;21081;-70
2021/12/13 00:05:38;;;;;;;31.13;28.93;;;9.60;99.90;;;;;;5039072;28;20572;-70
2021/12/13 00:08:11;;;;;;;28.93;26.77;;;9.50;99.90;;;;;;5038049;28;20630;-72
2021/12/13 00:10:41;;;;;;;31.33;28.73;;;9.50;99.90;;;;;;5040350;28;20463;-70
2021/12/13 00:13:13;;;;;;;32.67;30.10;;;9.40;99.90;;;;;;5040861;28;20494;-69
2021/12/13 00:15:49;;;;;;;32.40;29.43;;;9.50;99.90;;;;;;5047248;28;20577;-69
2021/12/13 00:18:21;;;;;;;31.30;29.10;;;9.50;99.90;;;;;;5038988;28;20889;-72
2021/12/13 00:20:55;;;;;;;31.87;29.60;;;9.50;99.90;;;;;;5037592;28;20525;-70
2021/12/13 00:23:26;;;;;;;33.30;30.80;;;9.50;99.90;;;;;;5043898;28;20490;-71
2021/12/13 00:25:56;;;;;;;33.00;29.73;;;9.60;99.90;;;;;;5043970;28;20470;-70
2021/12/13 00:28:26;;;;;;;31.70;29.40;;;9.60;99.90;;;;;;5035851;28;20467;-70
2021/12/13 00:31:12;;;;;;;32.23;29.87;;;9.70;99.90;;;;;;5041324;28;20821;-71
2021/12/13 00:33:45;;;;;;;31.67;29.37;;;9.70;99.90;;;;;;5037651;28;21163;-71
2021/12/13 00:36:17;;;;;;;31.30;28.93;;;9.70;99.90;;;;;;5042221;28;20454;-70
2021/12/13 00:38:52;;;;;;;32.23;30.00;;;9.60;99.90;;;;;;5043052;28;20516;-70
2021/12/13 00:41:24;;;;;;;32.53;30.13;;;9.50;99.90;;;;;;5043073;28;20465;-69
2021/12/13 00:43:54;;;;;;;31.53;29.13;;;9.60;99.90;;;;;;5039310;28;20489;-69
2021/12/13 00:46:26;;;;;;;30.87;28.47;;;9.50;99.90;;;;;;5039263;28;20464;-69
2021/12/13 00:48:58;;;;;;;30.93;28.60;;;9.60;99.90;;;;;;5038429;28;20916;-69
2021/12/13 00:51:28;;;;;;;30.23;28.00;;;9.50;99.90;;;;;;5038778;28;20971;-70
2021/12/13 00:53:57;;;;;;;31.67;28.67;;;9.50;99.90;;;;;;5044522;28;20589;-71
2021/12/13 00:56:48;;;;;;;29.67;27.67;;;9.50;99.90;;;;;;5046099;28;20553;-69
2021/12/13 00:59:22;;;;;;;29.33;27.30;;;9.50;99.90;;;;;;5037926;28;20461;-69
2021/12/13 01:01:58;;;;;;;28.63;26.63;;;9.50;99.90;;;;;;5038461;28;20524;-69
2021/12/13 01:04:47;;;;;;;28.80;26.73;;;9.40;99.90;;;;;;5041423;28;20467;-70
2021/12/13 01:07:53;;;;;;;30.10;27.80;;;9.40;99.90;;;;;;5041201;28;20461;-71
2021/12/13 01:11:09;;;;;;;28.57;26.67;;;9.40;99.90;;;;;;5018095;28;20455;-70
2021/12/13 01:13:42;;;;;;;27.70;25.70;;;9.40;99.90;;;;;;5036388;28;20494;-70
2021/12/13 01:16:34;;;;;;;26.33;24.67;;;9.40;99.90;;;;;;5033153;28;20485;-69
2021/12/13 01:19:28;;;;;;;27.43;25.47;;;9.50;99.90;;;;;;5032976;28;20464;-70
2021/12/13 01:22:16;;;;;;;26.53;24.83;;;9.50;99.90;;;;;;5041013;28;20653;-70
2021/12/13 01:25:15;;;;;;;26.27;24.10;;;9.50;99.90;;;;;;5035453;28;20471;-70
2021/12/13 01:27:42;;;;;;;26.50;24.77;;;9.50;99.90;;;;;;5037458;28;20544;-72
2021/12/13 01:30:12;;;;;;;25.83;24.20;;;9.50;99.90;;;;;;5035017;28;20842;-71
2021/12/13 01:32:43;;;;;;;24.90;23.40;;;9.50;99.90;;;;;;5034110;28;21016;-70
2021/12/13 01:35:19;;;;;;;25.63;23.73;;;9.50;99.90;;;;;;5042199;28;20476;-70
2021/12/13 01:37:51;;;;;;;26.37;24.47;;;9.50;99.90;;;;;;5042262;28;21013;-70
2021/12/13 01:40:21;;;;;;;25.47;23.77;;;9.50;99.90;;;;;;5036670;28;20460;-69
2021/12/13 01:42:56;;;;;;;25.67;23.80;;;9.50;99.90;;;;;;5039383;28;20483;-71
2021/12/13 01:45:26;;;;;;;24.33;22.73;;;9.50;99.90;;;;;;5040812;28;20504;-70
2021/12/13 01:47:54;;;;;;;24.40;22.70;;;9.40;99.90;;;;;;5039764;28;21095;-70
2021/12/13 01:50:29;;;;;;;23.77;22.23;;;9.40;99.90;;;;;;5035737;28;20496;-70
2021/12/13 01:52:57;;;;;;;23.77;22.20;;;9.40;99.90;;;;;;5037421;28;20499;-72
2021/12/13 01:55:29;;;;;;;25.00;23.20;;;9.40;99.90;;;;;;5041030;28;20477;-71
2021/12/13 01:58:20;;;;;;;22.80;21.37;;;9.40;99.90;;;;;;5038977;28;20990;-70
2021/12/13 02:03:41;;;;;;;22.27;20.83;;;9.50;99.90;;;;;;5037856;28;20457;-71
2021/12/13 02:06:10;;;;;;;22.27;20.77;;;9.40;99.90;;;;;;5036656;28;20460;-69
2021/12/13 02:08:37;;;;;;;21.77;20.37;;;9.40;99.90;;;;;;5041028;28;20465;-71
2021/12/13 02:11:05;;;;;;;21.43;20.03;;;9.40;99.90;;;;;;5044580;28;20471;-70
2021/12/13 02:13:41;;;;;;;22.13;20.63;;;9.40;99.90;;;;;;5042572;28;20481;-70
2021/12/13 02:18:52;;;;;;;21.77;20.27;;;9.40;99.90;;;;;;5021449;28;20453;-72
2021/12/13 02:21:28;;;;;;;22.03;20.50;;;9.40;99.90;;;;;;5046274;28;20463;-71
2021/12/13 02:24:01;;;;;;;21.53;20.03;;;9.40;99.90;;;;;;5037253;28;20554;-69
2021/12/13 02:26:29;;;;;;;23.40;21.70;;;9.40;99.90;;;;;;5044698;28;20490;-70
2021/12/13 02:29:05;;;;;;;22.40;20.83;;;9.40;99.90;;;;;;5043221;28;20473;-70
2021/12/13 02:31:35;;;;;;;23.60;21.80;;;9.30;99.90;;;;;;5043919;28;20539;-72
2021/12/13 02:34:07;;;;;;;21.77;20.27;;;9.40;99.90;;;;;;5046072;28;20495;-71
2021/12/13 02:36:36;;;;;;;21.57;20.17;;;9.30;99.90;;;;;;5046719;28;20926;-72
2021/12/13 02:39:08;;;;;;;22.37;20.80;;;9.40;99.90;;;;;;5043066;28;20856;-70
2021/12/13 02:41:37;;;;;;;22.10;20.50;;;9.40;99.90;;;;;;5044774;28;20505;-70
2021/12/13 02:44:10;;;;;;;20.80;19.40;;;9.30;99.90;;;;;;5043404;28;20457;-72
2021/12/13 02:46:39;;;;;;;21.90;20.30;;;9.40;99.90;;;;;;5042291;28;20563;-72
2021/12/13 02:49:09;;;;;;;19.97;18.67;;;9.40;99.90;;;;;;5037509;28;20459;-70
2021/12/13 02:51:40;;;;;;;20.13;18.80;;;9.40;99.90;;;;;;5044850;28;20494;-70
2021/12/13 02:54:11;;;;;;;21.43;19.93;;;9.40;99.90;;;;;;5045565;28;21049;-70
2021/12/13 02:56:47;;;;;;;21.13;19.63;;;9.40;99.90;;;;;;5045813;28;20492;-70
2021/12/13 02:59:17;;;;;;;21.00;19.70;;;9.40;99.90;;;;;;5041033;28;20477;-71
2021/12/13 03:01:47;;;;;;;20.27;18.87;;;9.40;99.90;;;;;;5044371;28;20577;-70
2021/12/13 03:04:19;;;;;;;20.53;19.23;;;9.30;99.90;;;;;;5046223;28;20462;-72
2021/12/13 03:06:51;;;;;;;21.83;20.33;;;9.30;99.90;;;;;;5046899;28;20985;-71
2021/12/13 03:09:23;;;;;;;22.60;20.40;;;9.40;99.90;;;;;;5043717;28;20456;-71
2021/12/13 03:11:52;;;;;;;21.57;20.00;;;9.40;99.90;;;;;;5041150;28;20514;-69
2021/12/13 03:14:22;;;;;;;22.10;20.37;;;9.40;99.90;;;;;;5044601;28;20554;-70
2021/12/13 03:16:53;;;;;;;21.67;20.17;;;9.40;99.90;;;;;;5044416;28;20470;-71
2021/12/13 03:19:31;;;;;;;21.23;19.67;;;9.30;99.90;;;;;;5039365;28;20554;-70
2021/12/13 03:22:18;;;;;;;21.47;19.87;;;9.30;99.90;;;;;;5046165;28;20523;-70
2021/12/13 03:25:08;;;;;;;21.93;20.43;;;9.40;99.90;;;;;;5044002;28;20466;-72
2021/12/13 03:27:50;;;;;;;21.40;19.83;;;9.30;99.90;;;;;;5042570;28;20458;-70
2021/12/13 03:30:20;;;;;;;21.13;19.60;;;9.40;99.90;;;;;;5037095;28;20503;-70
2021/12/13 03:32:57;;;;;;;21.00;19.53;;;9.40;99.90;;;;;;5044680;28;20496;-70
2021/12/13 03:35:34;;;;;;;21.23;19.83;;;9.40;99.90;;;;;;5040843;28;20464;-72
2021/12/13 03:38:06;;;;;;;21.40;19.90;;;9.40;99.90;;;;;;5037709;28;20461;-72
2021/12/13 03:40:34;;;;;;;22.27;20.53;;;9.40;99.90;;;;;;5043706;28;20466;-70
2021/12/13 03:43:05;;;;;;;20.90;19.40;;;9.30;99.90;;;;;;5043252;28;20488;-70
2021/12/13 03:45:38;;;;;;;20.30;18.50;;;9.40;99.90;;;;;;5042991;28;20468;-69
2021/12/13 03:48:07;;;;;;;21.10;19.60;;;9.40;99.90;;;;;;5039106;28;20490;-71
2021/12/13 03:50:36;;;;;;;20.83;19.37;;;9.30;99.90;;;;;;5037258;28;20492;-71
2021/12/13 03:53:09;;;;;;;21.20;19.70;;;9.40;99.90;;;;;;5040952;28;21310;-68
2021/12/13 03:55:39;;;;;;;21.50;19.90;;;9.30;99.90;;;;;;5040385;28;20558;-71
2021/12/13 03:58:09;;;;;;;22.40;20.80;;;9.30;99.90;;;;;;5046313;28;20899;-70
2021/12/13 04:00:40;;;;;;;20.00;18.70;;;9.30;99.90;;;;;;5034661;28;20466;-69
2021/12/13 04:03:10;;;;;;;20.70;19.20;;;9.40;99.90;;;;;;5041861;28;20475;-69
2021/12/13 04:05:38;;;;;;;20.07;18.63;;;9.40;99.90;;;;;;5045274;28;20486;-69
2021/12/13 04:08:08;;;;;;;20.57;19.27;;;9.40;99.90;;;;;;5043721;28;20996;-69
2021/12/13 04:10:41;;;;;;;21.20;19.70;;;9.40;99.90;;;;;;5043400;28;20469;-70
2021/12/13 04:13:13;;;;;;;20.47;19.07;;;9.40;99.90;;;;;;5045828;28;21015;-69
2021/12/13 04:15:54;;;;;;;20.63;19.13;;;9.40;99.90;;;;;;5042696;28;20831;-69
2021/12/13 04:18:40;;;;;;;20.67;19.20;;;9.40;99.90;;;;;;5038873;28;20850;-69
2021/12/13 04:21:08;;;;;;;20.60;19.20;;;9.50;99.90;;;;;;5037336;28;20468;-72
2021/12/13 04:23:36;;;;;;;20.50;19.00;;;9.50;99.90;;;;;;5043640;28;20477;-69
2021/12/13 04:26:08;;;;;;;20.73;19.40;;;9.40;99.90;;;;;;5043631;28;20467;-69
2021/12/13 04:28:39;;;;;;;20.80;19.40;;;9.40;99.90;;;;;;5040971;28;20726;-69
2021/12/13 04:31:08;;;;;;;20.53;19.07;;;9.50;99.90;;;;;;5044737;28;20474;-71
2021/12/13 04:33:38;;;;;;;20.83;19.43;;;9.40;99.90;;;;;;5035406;28;20497;-70
2021/12/13 04:36:08;;;;;;;20.53;19.23;;;9.50;99.90;;;;;;5039594;28;20471;-69
2021/12/13 04:38:47;;;;;;;21.10;19.60;;;9.60;99.90;;;;;;5039749;28;21009;-71
2021/12/13 04:41:22;;;;;;;20.73;19.20;;;9.60;99.90;;;;;;5036647;28;20514;-71
2021/12/13 04:43:49;;;;;;;20.90;19.40;;;9.50;99.90;;;;;;5041824;28;20487;-69
2021/12/13 04:46:19;;;;;;;20.80;19.30;;;9.60;99.90;;;;;;5038635;28;20981;-69
2021/12/13 04:48:47;;;;;;;20.30;18.70;;;9.60;99.90;;;;;;5040768;28;20466;-70
2021/12/13 04:51:17;;;;;;;20.47;18.80;;;9.50;99.90;;;;;;5041781;28;20479;-70
2021/12/13 04:53:47;;;;;;;20.27;18.97;;;9.40;99.90;;;;;;5035665;28;20475;-72
2021/12/13 04:56:19;;;;;;;20.70;19.20;;;9.40;99.90;;;;;;5040532;28;20468;-69
2021/12/13 04:58:50;;;;;;;20.27;18.97;;;9.50;99.90;;;;;;5044495;28;20458;-70
2021/12/13 05:01:19;;;;;;;21.20;19.40;;;9.50;99.90;;;;;;5036904;28;20815;-69
2021/12/13 05:03:49;;;;;;;20.93;19.53;;;9.60;99.90;;;;;;5042410;28;20466;-69
2021/12/13 05:06:19;;;;;;;20.60;19.03;;;9.50;99.90;;;;;;5044711;28;20982;-69
2021/12/13 05:08:49;;;;;;;21.53;20.03;;;9.50;99.90;;;;;;5039588;28;20532;-71
2021/12/13 05:11:18;;;;;;;19.33;17.93;;;9.50;99.90;;;;;;5037159;28;20824;-69
2021/12/13 05:13:48;;;;;;;20.10;18.53;;;9.60;99.90;;;;;;5043141;28;20498;-69
2021/12/13 05:16:29;;;;;;;20.00;18.60;;;9.60;99.90;;;;;;5043945;28;20463;-68
2021/12/13 05:18:57;;;;;;;19.40;18.20;;;9.60;99.90;;;;;;5041346;28;21102;-70
2021/12/13 05:21:28;;;;;;;19.03;17.77;;;9.50;99.90;;;;;;5045195;28;20512;-72
2021/12/13 05:23:59;;;;;;;19.50;18.00;;;9.60;99.90;;;;;;5039748;28;20473;-69
2021/12/13 05:26:33;;;;;;;19.27;18.03;;;9.60;99.90;;;;;;5040694;28;20477;-71
2021/12/13 05:29:02;;;;;;;19.10;17.90;;;9.50;99.90;;;;;;5038150;28;20471;-69
2021/12/13 05:31:31;;;;;;;18.70;17.37;;;9.50;99.90;;;;;;5041890;28;20462;-69
2021/12/13 05:34:03;;;;;;;18.03;16.77;;;9.60;99.90;;;;;;5036389;28;20992;-69
2021/12/13 05:36:32;;;;;;;19.80;18.50;;;9.60;99.90;;;;;;5040921;28;20468;-70
2021/12/13 05:39:07;;;;;;;18.00;16.80;;;9.60;99.90;;;;;;5046794;28;20758;-70
2021/12/13 05:41:37;;;;;;;18.63;17.43;;;9.50;99.90;;;;;;5039132;28;20462;-69
2021/12/13 05:44:07;;;;;;;18.30;17.00;;;9.60;99.90;;;;;;5042705;28;20468;-69
2021/12/13 05:46:37;;;;;;;18.40;17.10;;;9.60;99.90;;;;;;5044268;28;20474;-72
2021/12/13 05:49:08;;;;;;;18.70;17.40;;;9.60;99.90;;;;;;5042237;28;20659;-70
2021/12/13 05:51:39;;;;;;;18.57;17.37;;;9.60;99.90;;;;;;5038733;28;20496;-69
2021/12/13 05:54:09;;;;;;;17.27;16.27;;;9.50;99.90;;;;;;5036745;28;21014;-68
2021/12/13 05:56:42;;;;;;;18.43;17.23;;;9.50;99.90;;;;;;5039757;28;20463;-71
2021/12/13 05:59:14;;;;;;;18.30;17.20;;;9.50;99.90;;;;;;5039488;28;20495;-71
2021/12/13 06:01:49;;;;;;;18.03;16.93;;;9.50;99.90;;;;;;5040145;28;20468;-72
2021/12/13 06:04:24;;;;;;;19.97;18.27;;;9.30;99.90;;;;;;5042855;28;20470;-69
2021/12/13 06:06:54;;;;;;;19.27;17.90;;;9.30;99.90;;;;;;5042109;28;20992;-69
2021/12/13 06:09:43;;;;;;;19.17;17.93;;;9.40;99.90;;;;;;5036639;28;20460;-69
2021/12/13 06:12:14;;;;;;;19.57;18.23;;;9.50;99.90;;;;;;5034632;28;20474;-69
2021/12/13 06:14:42;;;;;;;19.30;18.00;;;9.50;99.90;;;;;;5037694;28;20493;-69
2021/12/13 06:17:15;;;;;;;18.83;17.40;;;9.50;99.90;;;;;;5041605;28;20487;-69
2021/12/13 06:19:47;;;;;;;19.07;17.87;;;9.50;99.90;;;;;;5038428;28;20477;-69
2021/12/13 06:22:20;;;;;;;19.90;18.00;;;9.40;99.90;;;;;;5035329;28;20515;-70
2021/12/13 06:24:54;;;;;;;17.97;16.80;;;9.50;99.90;;;;;;5037155;28;20469;-69
2021/12/13 06:27:24;;;;;;;17.20;16.20;;;9.50;99.90;;;;;;5036295;28;20489;-69
2021/12/13 06:30:02;;;;;;;17.27;16.20;;;9.60;99.90;;;;;;5037565;28;20463;-69
2021/12/13 06:32:33;;;;;;;17.40;16.30;;;9.60;99.90;;;;;;5032837;28;20552;-70
2021/12/13 06:35:21;;;;;;;17.97;16.80;;;9.50;99.90;;;;;;5038916;28;20880;-70
2021/12/13 06:37:48;;;;;;;17.73;16.63;;;9.50;99.90;;;;;;5039220;28;20538;-69
2021/12/13 06:40:26;;;;;;;17.93;16.80;;;9.50;99.90;;;;;;5033761;28;20463;-69
2021/12/13 06:42:55;;;;;;;17.60;16.50;;;9.50;99.90;;;;;;5036178;28;20484;-68
2021/12/13 06:45:26;;;;;;;18.70;17.40;;;9.50;99.90;;;;;;5035012;28;20466;-68
2021/12/13 06:47:55;;;;;;;18.77;17.40;;;9.50;99.90;;;;;;5039112;28;20460;-70
2021/12/13 06:50:25;;;;;;;19.37;17.80;;;9.50;99.90;;;;;;5041126;28;20483;-69
2021/12/13 06:52:53;;;;;;;18.27;17.17;;;9.50;99.90;;;;;;5039417;28;20459;-69
2021/12/13 06:55:21;;;;;;;19.03;17.73;;;9.40;99.90;;;;;;5042299;28;20498;-69
2021/12/13 06:57:51;;;;;;;19.67;18.27;;;9.50;99.90;;;;;;5045606;28;20547;-69
2021/12/13 07:00:30;;;;;;;18.50;17.33;;;9.50;99.90;;;;;;5045865;28;20468;-69
2021/12/13 07:03:01;;;;;;;18.73;17.33;;;9.50;99.90;;;;;;5046579;28;20477;-71
2021/12/13 07:05:29;;;;;;;18.43;17.27;;;9.50;99.90;;;;;;5039538;28;20459;-69
2021/12/13 07:08:00;;;;;;;20.90;19.10;;;9.50;99.90;;;;;;5041765;28;20470;-68
2021/12/13 07:10:32;;;;;;;21.40;19.40;;;9.50;99.90;;;;;;5039371;28;20454;-68
2021/12/13 07:13:02;;;;;;;18.67;17.10;;;9.50;99.90;;;;;;5045140;28;20471;-70
2021/12/13 07:15:35;;;;;;;19.67;18.17;;;9.50;99.90;;;;;;5041840;28;20490;-69
2021/12/13 07:18:13;;;;;;;20.00;18.60;;;9.50;99.90;;;;;;5044273;28;20916;-69
2021/12/13 07:20:46;;;;;;;20.10;18.70;;;9.40;99.90;;;;;;5039219;28;20794;-69
2021/12/13 07:23:14;;;;;;;17.00;15.80;;;9.40;99.90;;;;;;5044305;28;20475;-69
2021/12/13 07:25:43;;;;;;;17.90;16.60;;;9.50;99.90;;;;;;5038192;28;20499;-70
2021/12/13 07:28:11;;;;;;;17.53;16.33;;;9.50;99.90;;;;;;5042059;28;20479;-71
2021/12/13 07:30:42;;;;;;;19.13;17.73;;;9.50;99.90;;;;;;5043640;28;20471;-70
2021/12/13 07:33:12;;;;;;;17.87;16.70;;;9.50;99.90;;;;;;5038234;28;20996;-69
2021/12/13 07:35:43;;;;;;;18.20;16.73;;;9.50;99.90;;;;;;5040787;28;20577;-71
2021/12/13 07:38:20;;;;;;;16.93;15.93;;;9.40;99.90;;;;;;5044511;28;20466;-69
2021/12/13 07:40:49;;;;;;;15.73;14.93;;;9.50;99.90;;;;;;5041095;28;20824;-71
2021/12/13 07:43:20;;;;;;;17.33;16.27;;;9.50;99.90;;;;;;5044631;28;20490;-71
2021/12/13 07:45:56;;;;;;;16.67;15.70;;;9.50;99.90;;;;;;5042707;28;20483;-69
2021/12/13 07:48:26;;;;;;;16.20;15.30;;;9.50;99.90;;;;;;5041020;28;20467;-69
2021/12/13 07:51:01;;;;;;;16.40;15.40;;;9.50;99.90;;;;;;5041320;28;20491;-71
2021/12/13 07:53:29;;;;;;;16.53;15.53;;;9.50;99.90;;;;;;5043031;28;20482;-69
2021/12/13 07:55:56;;;;;;;16.10;15.00;;;9.50;99.90;;;;;;5040247;28;20484;-71
2021/12/13 07:58:35;;;;;;;15.80;14.70;;;9.50;99.90;;;;;;5041919;28;20996;-69
2021/12/13 08:01:21;;;;;;;15.73;14.83;;;9.50;99.90;;;;;;5041658;28;20470;-72
2021/12/13 08:03:53;;;;;;;16.80;15.70;;;9.40;99.90;;;;;;5037117;28;20472;-70
2021/12/13 08:06:21;;;;;;;19.53;18.03;;;9.50;99.90;;;;;;5045777;28;20468;-69
2021/12/13 08:08:53;;;;;;;18.27;16.97;;;9.50;99.90;;;;;;5044209;28;20475;-72
2021/12/13 08:11:38;;;;;;;19.47;18.00;;;9.50;99.90;;;;;;5039761;28;20466;-71
2021/12/13 08:14:07;;;;;;;20.13;18.47;;;9.50;99.90;;;;;;5040545;28;20490;-69
2021/12/13 08:16:38;;;;;;;16.47;15.47;;;9.50;99.90;;;;;;5042633;28;20464;-70
2021/12/13 08:19:14;;;;;;;17.50;16.40;;;9.50;99.90;;;;;;5040722;28;20935;-68
2021/12/13 08:21:47;;;;;;;17.87;16.53;;;9.50;99.90;;;;;;5036960;28;20464;-69
2021/12/13 08:24:22;;;;;;;15.90;15.00;;;9.60;99.90;;;;;;5037997;28;20964;-69
2021/12/13 08:26:56;;;;;;;16.83;15.90;;;9.60;99.90;;;;;;5030463;28;20816;-70
2021/12/13 08:29:27;;;;;;;18.03;16.53;;;9.60;99.90;;;;;;5040786;28;20962;-68
2021/12/13 08:31:57;;;;;;;16.43;15.43;;;9.60;99.90;;;;;;5038153;28;20456;-68
2021/12/13 08:34:27;;;;;;;16.43;15.20;;;9.60;99.90;;;;;;5036858;28;21047;-70
2021/12/13 08:36:54;;;;;;;17.23;16.03;;;9.70;99.90;;;;;;5041449;28;20825;-72
2021/12/13 08:39:25;;;;;;;16.60;15.70;;;9.60;99.90;;;;;;5039052;28;20463;-70
2021/12/13 08:41:55;;;;;;;15.83;14.93;;;9.60;99.90;;;;;;5041704;28;20471;-69
2021/12/13 08:44:27;;;;;;;17.33;16.17;;;9.70;99.90;;;;;;5039999;28;20474;-68
2021/12/13 08:46:59;;;;;;;15.73;14.83;;;9.60;99.90;;;;;;5042881;28;20490;-70
2021/12/13 08:49:34;;;;;;;16.23;15.33;;;9.70;99.90;;;;;;5035287;28;20456;-70
2021/12/13 08:52:19;;;;;;;15.97;15.17;;;9.70;99.90;;;;;;5045685;28;20831;-71
2021/12/13 08:54:52;;;;;;;16.17;15.13;;;9.70;99.90;;;;;;5037852;28;21001;-70
2021/12/13 08:57:42;;;;;;;16.83;15.73;;;9.70;99.90;;;;;;5040665;28;20806;-69
2021/12/13 09:00:35;;;;;;;16.80;15.80;;;9.70;99.90;;;;;;5044200;28;20829;-72
2021/12/13 09:03:34;;;;;;;16.87;15.90;;;9.70;99.90;;;;;;5031951;28;20459;-69
2021/12/13 09:06:25;;;;;;;16.00;15.10;;;9.80;99.90;;;;;;5036117;28;20482;-72
2021/12/13 09:08:57;;;;;;;15.70;14.80;;;9.80;99.90;;;;;;5040794;28;20472;-69
2021/12/13 09:11:30;;;;;;;16.20;15.00;;;9.80;99.90;;;;;;5042145;28;20821;-69
2021/12/13 09:14:02;;;;;;;16.77;15.43;;;9.90;99.90;;;;;;5040070;28;20455;-69
2021/12/13 09:16:42;;;;;;;16.67;15.60;;;9.90;99.90;;;;;;5044342;28;20463;-68
2021/12/13 09:19:16;;;;;;;16.47;15.53;;;9.90;99.90;;;;;;5044054;28;20466;-69
2021/12/13 09:21:55;;;;;;;17.50;16.30;;;9.90;99.90;;;;;;5040741;28;20829;-72
2021/12/13 09:24:41;;;;;;;16.10;15.20;;;9.90;99.90;;;;;;5036806;28;20472;-68
2021/12/13 09:27:25;;;;;;;16.87;15.83;;;10.00;99.90;;;;;;5041953;28;20471;-70
2021/12/13 09:30:01;;;;;;;16.00;15.10;;;10.10;99.90;;;;;;5034980;28;20888;-69
2021/12/13 09:32:35;;;;;;;15.30;14.50;;;10.10;99.90;;;;;;5038526;28;20472;-70
2021/12/13 09:35:28;;;;;;;16.40;15.50;;;10.10;99.90;;;;;;5042605;28;20480;-72
2021/12/13 09:37:59;;;;;;;16.10;15.20;;;10.10;99.90;;;;;;5043191;28;20487;-69
2021/12/13 09:40:32;;;;;;;15.83;14.93;;;10.10;99.90;;;;;;5041905;28;20828;-69
2021/12/13 09:42:59;;;;;;;17.23;16.13;;;10.10;99.90;;;;;;5043973;28;20485;-69
2021/12/13 09:45:28;;;;;;;18.77;17.00;;;10.20;99.90;;;;;;5040502;28;20473;-69
2021/12/13 09:47:56;;;;;;;18.30;17.00;;;10.20;99.90;;;;;;5035534;28;20459;-69
2021/12/13 09:50:27;;;;;;;18.17;16.97;;;10.20;99.90;;;;;;5026098;28;20599;-71
2021/12/13 09:52:56;;;;;;;17.27;16.17;;;10.30;99.90;;;;;;5035725;28;20482;-69
2021/12/13 09:55:28;;;;;;;18.30;17.20;;;10.30;99.90;;;;;;5036305;28;20484;-69
2021/12/13 09:57:59;;;;;;;17.27;16.07;;;10.40;99.90;;;;;;5036014;28;20491;-69
2021/12/13 10:00:31;;;;;;;16.37;15.43;;;10.40;99.90;;;;;;5032572;28;20474;-72
2021/12/13 10:03:04;;;;;;;16.43;15.50;;;10.50;99.90;;;;;;5034880;28;20484;-68
2021/12/13 10:05:36;;;;;;;16.87;15.87;;;10.60;99.90;;;;;;5032073;28;20471;-68
2021/12/13 10:08:06;;;;;;;17.27;16.27;;;10.70;99.90;;;;;;5035610;28;20548;-69
2021/12/13 10:10:37;;;;;;;16.20;15.20;;;10.70;99.90;;;;;;5037410;28;20955;-69
2021/12/13 10:13:06;;;;;;;16.60;15.70;;;10.70;99.90;;;;;;5031826;28;20839;-69
2021/12/13 10:15:37;;;;;;;16.40;15.30;;;10.80;99.90;;;;;;5033216;28;20490;-68
2021/12/13 10:18:09;;;;;;;17.47;16.47;;;10.80;99.90;;;;;;5038460;28;20475;-69
2021/12/13 10:20:40;;;;;;;17.03;16.07;;;10.80;99.90;;;;;;5033005;28;20463;-70
2021/12/13 10:23:12;;;;;;;16.80;15.70;;;10.90;99.90;;;;;;5035817;28;20950;-69
2021/12/13 10:25:42;;;;;;;16.50;15.60;;;10.90;99.90;;;;;;5037369;28;20467;-69
2021/12/13 10:28:12;;;;;;;16.37;15.50;;;10.90;99.90;;;;;;5031450;28;20468;-69
2021/12/13 10:30:41;;;;;;;17.03;16.03;;;11.00;99.90;;;;;;5033053;28;20482;-69
2021/12/13 10:33:09;;;;;;;16.87;15.50;;;11.00;99.90;;;;;;5036117;28;20483;-69
2021/12/13 10:35:41;;;;;;;16.63;15.60;;;11.10;99.90;;;;;;5038453;28;21096;-69
2021/12/13 10:38:10;;;;;;;16.73;15.73;;;11.10;99.90;;;;;;5038953;28;20465;-69
2021/12/13 10:40:41;;;;;;;17.30;16.30;;;11.10;99.90;;;;;;5036418;28;20467;-69
2021/12/13 10:43:11;;;;;;;16.53;15.57;;;11.10;99.90;;;;;;5042367;28;20490;-69
2021/12/13 10:45:41;;;;;;;15.83;15.00;;;11.20;99.90;;;;;;5035485;28;20467;-69
2021/12/13 10:48:11;;;;;;;16.23;15.27;;;11.30;99.90;;;;;;5037093;28;20597;-71
2021/12/13 10:50:43;;;;;;;15.97;15.17;;;11.30;99.90;;;;;;5039908;28;20495;-70
2021/12/13 10:53:13;;;;;;;15.60;14.80;;;11.40;99.90;;;;;;5038432;28;20479;-68
2021/12/13 10:55:44;;;;;;;16.37;15.37;;;11.40;99.90;;;;;;5034959;28;20845;-69
2021/12/13 10:58:14;;;;;;;15.87;15.00;;;11.40;99.90;;;;;;5031075;28;20552;-68
2021/12/13 11:00:47;;;;;;;16.33;15.43;;;11.50;99.90;;;;;;5038079;28;20562;-73
2021/12/13 11:03:18;;;;;;;15.70;14.80;;;11.70;99.90;;;;;;5033223;28;20554;-70
2021/12/13 11:05:47;;;;;;;16.13;15.30;;;11.70;99.90;;;;;;5029413;28;20965;-70
2021/12/13 11:08:17;;;;;;;16.10;15.20;;;11.50;99.90;;;;;;5033503;28;20555;-69
2021/12/13 11:10:47;;;;;;;15.57;14.70;;;11.40;99.90;;;;;;5038081;28;20471;-70
2021/12/13 11:13:15;;;;;;;15.57;14.77;;;11.40;99.90;;;;;;5032743;28;20457;-72
2021/12/13 11:15:46;;;;;;;16.97;15.90;;;11.40;99.90;;;;;;5037313;28;20487;-69
2021/12/13 11:18:20;;;;;;;15.77;14.97;;;11.20;99.90;;;;;;5035680;28;20463;-68
2021/12/13 11:20:51;;;;;;;15.40;14.50;;;11.10;99.90;;;;;;5038835;28;20487;-69
2021/12/13 11:23:21;;;;;;;15.90;15.10;;;11.10;99.90;;;;;;5031986;28;20457;-71
2021/12/13 11:25:50;;;;;;;15.57;14.67;;;11.20;99.90;;;;;;5036069;28;20469;-71
2021/12/13 11:28:18;;;;;;;16.40;15.50;;;11.20;99.90;;;;;;5041207;28;20468;-72
2021/12/13 11:30:48;;;;;;;16.40;15.50;;;11.30;99.90;;;;;;5037039;28;20475;-71
2021/12/13 11:33:48;;;;;;;15.93;15.13;;;11.20;99.90;;;;;;5035525;28;20468;-71
2021/12/13 11:36:54;;;;;;;15.50;14.70;;;11.30;99.90;;;;;;5033449;28;20651;-68
2021/12/13 11:39:47;;;;;;;14.87;14.17;;;11.30;99.90;;;;;;5029356;28;20783;-68
2021/12/13 11:42:45;;;;;;;15.43;14.53;;;11.30;99.90;;;;;;5035312;28;20495;-68
2021/12/13 11:45:52;;;;;;;14.57;13.87;;;11.40;99.90;;;;;;5035173;28;20460;-67
2021/12/13 11:48:48;;;;;;;14.97;14.27;;;12.00;99.90;;;;;;5033627;28;20649;-68
2021/12/13 11:51:56;;;;;;;16.10;15.20;;;12.30;99.90;;;;;;5028000;28;20495;-69
2021/12/13 11:55:14;;;;;;;15.53;14.73;;;12.10;99.90;;;;;;5032981;28;20804;-69
2021/12/13 11:57:58;;;;;;;15.73;14.83;;;12.10;99.90;;;;;;5030259;28;20465;-69
2021/12/13 12:00:41;;;;;;;15.33;14.53;;;12.00;99.90;;;;;;5037892;28;20580;-70
2021/12/13 12:03:45;;;;;;;15.63;14.83;;;12.00;99.90;;;;;;5039306;28;20925;-69
2021/12/13 12:06:50;;;;;;;15.97;15.17;;;12.00;99.90;;;;;;5036135;28;20460;-69
2021/12/13 12:09:31;;;;;;;15.70;14.70;;;12.00;99.90;;;;;;5032341;28;20963;-69
2021/12/13 12:12:26;;;;;;;15.67;14.87;;;11.90;99.90;;;;;;5031566;28;20468;-68
2021/12/13 12:14:59;;;;;;;15.43;14.63;;;11.90;99.90;;;;;;5033074;28;20461;-70
2021/12/13 12:17:26;;;;;;;15.63;14.83;;;11.80;99.90;;;;;;5040384;28;20534;-69
2021/12/13 12:19:53;;;;;;;15.37;14.57;;;11.80;99.90;;;;;;5037030;28;20838;-70
2021/12/13 12:22:22;;;;;;;15.53;14.73;;;11.80;99.90;;;;;;5029065;28;20472;-69
2021/12/13 12:24:51;;;;;;;16.03;14.80;;;11.80;99.90;;;;;;5034344;28;20803;-69
2021/12/13 12:27:23;;;;;;;16.03;15.13;;;11.80;99.90;;;;;;5031542;28;20480;-68
2021/12/13 12:29:52;;;;;;;16.07;15.00;;;11.70;99.90;;;;;;5039494;28;20868;-70
2021/12/13 12:32:24;;;;;;;16.17;15.10;;;11.80;99.90;;;;;;5037802;28;20496;-70
2021/12/13 12:34:55;;;;;;;15.80;14.80;;;11.90;99.90;;;;;;5037314;28;20997;-69
2021/12/13 12:38:07;;;;;;;16.73;15.73;;;11.80;99.90;;;;;;5029489;28;20489;-69
2021/12/13 12:40:36;;;;;;;16.33;15.43;;;11.60;99.90;;;;;;5038037;28;21060;-69
2021/12/13 12:43:07;;;;;;;17.33;16.30;;;11.70;99.90;;;;;;5037329;28;20476;-69
2021/12/13 12:45:37;;;;;;;15.87;14.90;;;11.60;99.90;;;;;;5032298;28;20455;-69
2021/12/13 12:48:14;;;;;;;16.73;15.43;;;11.50;99.90;;;;;;5029936;28;20464;-72
2021/12/13 12:50:50;;;;;;;17.00;16.00;;;11.60;99.90;;;;;;5037502;28;20507;-72
2021/12/13 12:53:24;;;;;;;15.93;15.03;;;11.50;99.90;;;;;;5033172;28;20472;-72
2021/12/13 12:55:55;;;;;;;15.87;15.07;;;11.50;99.90;;;;;;5040126;28;20497;-69
2021/12/13 12:58:33;;;;;;;16.40;15.40;;;11.60;99.90;;;;;;5029628;28;20464;-69
2021/12/13 13:01:03;;;;;;;16.13;15.20;;;11.50;99.90;;;;;;5036293;28;20562;-69
2021/12/13 13:03:33;;;;;;;15.73;14.93;;;11.50;99.90;;;;;;5034268;28;20865;-69
2021/12/13 13:06:06;;;;;;;16.13;15.23;;;11.60;99.90;;;;;;5038983;28;20478;-72
2021/12/13 13:08:35;;;;;;;16.63;15.53;;;11.50;99.90;;;;;;5037798;28;20479;-69
2021/12/13 13:14:11;;;;;;;15.63;14.83;;;11.40;99.90;;;;;;4991887;28;20457;-72
2021/12/13 13:16:42;;;;;;;16.10;15.20;;;11.40;99.90;;;;;;5031975;28;21179;-69